createdAt,value
2024-03-12T00:00:46.524Z,96.50
2024-03-12T00:01:46.245Z,96.31
2024-03-12T00:02:46.143Z,96.12
2024-03-12T00:03:46.091Z,95.93
2024-03-12T00:04:45.979Z,96.41
2024-03-12T00:05:45.907Z,96.12
2024-03-12T00:06:45.907Z,95.74
2024-03-12T00:07:45.729Z,95.55
2024-03-12T00:08:45.677Z,95.36
2024-03-12T00:09:45.596Z,95.36
2024-03-12T00:10:45.491Z,94.89
2024-03-12T00:11:45.399Z,95.36
2024-03-12T00:12:45.473Z,95.17
2024-03-12T00:13:45.232Z,95.27
2024-03-12T00:14:45.137Z,94.89
2024-03-12T00:15:45.102Z,94.89
2024-03-12T00:16:44.975Z,94.98
2024-03-12T00:17:44.920Z,94.79
2024-03-12T00:18:44.822Z,95.17
2024-03-12T00:19:44.718Z,95.27
2024-03-12T00:20:44.634Z,94.60
2024-03-12T00:21:44.595Z,95.07
2024-03-12T00:22:44.473Z,94.79
2024-03-12T00:23:44.384Z,95.27
2024-03-12T00:24:44.383Z,95.27
2024-03-12T00:25:44.220Z,95.31
2024-03-12T00:26:46.490Z,95.07
2024-03-12T00:27:44.082Z,95.41
2024-03-12T00:28:43.971Z,95.07
2024-03-12T00:29:43.878Z,95.17
2024-03-12T00:30:43.821Z,95.03
2024-03-12T00:31:43.715Z,95.03
2024-03-12T00:32:43.672Z,94.79
2024-03-12T00:33:43.619Z,94.93
2024-03-12T00:34:43.464Z,94.84
2024-03-12T00:35:43.376Z,94.46
2024-03-12T00:36:43.395Z,93.99
2024-03-12T00:37:43.208Z,94.13
2024-03-12T00:38:43.141Z,94.51
2024-03-12T00:39:43.084Z,94.42
2024-03-12T00:40:43.000Z,94.23
2024-03-12T00:41:42.898Z,94.03
2024-03-12T00:42:42.858Z,94.13
2024-03-12T00:43:42.714Z,94.79
2024-03-12T00:44:42.668Z,95.84
2024-03-12T00:45:42.784Z,96.22
2024-03-12T00:46:42.494Z,96.22
2024-03-12T00:47:42.585Z,96.50
2024-03-12T00:48:42.357Z,96.88
2024-03-12T00:49:42.245Z,96.97
2024-03-12T00:50:42.130Z,97.07
2024-03-12T00:51:42.100Z,96.97
2024-03-12T00:52:41.958Z,96.03
2024-03-12T00:53:41.882Z,94.60
2024-03-12T00:54:41.816Z,93.65
2024-03-12T00:55:42.217Z,93.84
2024-03-12T00:56:41.657Z,94.60
2024-03-12T00:57:41.584Z,93.84
2024-03-12T00:58:41.453Z,94.51
2024-03-12T00:59:41.373Z,94.42
2024-03-12T01:00:41.998Z,93.56
2024-03-12T01:01:41.240Z,93.84
2024-03-12T01:02:41.119Z,93.08
2024-03-12T01:03:41.053Z,92.61
2024-03-12T01:04:40.948Z,91.71
2024-03-12T01:05:41.164Z,91.71
2024-03-12T01:06:40.797Z,92.28
2024-03-12T01:07:40.697Z,92.76
2024-03-12T01:08:40.612Z,93.32
2024-03-12T01:09:40.578Z,94.27
2024-03-12T01:10:40.738Z,94.84
2024-03-12T01:11:40.363Z,96.36
2024-03-12T01:12:40.357Z,96.83
2024-03-12T01:13:40.190Z,96.73
2024-03-12T01:14:40.104Z,96.92
2024-03-12T01:15:40.263Z,97.69
2024-03-12T01:16:39.940Z,97.69
2024-03-12T01:17:39.882Z,98.25
2024-03-12T01:18:39.787Z,98.25
2024-03-12T01:19:39.682Z,98.25
2024-03-12T01:20:39.605Z,98.44
2024-03-12T01:21:39.543Z,98.16
2024-03-12T01:22:39.433Z,98.25
2024-03-12T01:23:39.357Z,97.78
2024-03-12T01:24:39.282Z,97.97
2024-03-12T01:25:39.184Z,97.78
2024-03-12T01:26:39.106Z,96.64
2024-03-12T01:27:39.059Z,96.17
2024-03-12T01:28:38.950Z,95.41
2024-03-12T01:29:38.847Z,95.12
2024-03-12T01:30:38.808Z,94.46
2024-03-12T01:31:38.676Z,94.08
2024-03-12T01:32:38.596Z,94.37
2024-03-12T01:33:38.506Z,94.46
2024-03-12T01:34:38.492Z,94.84
2024-03-12T01:35:38.348Z,95.22
2024-03-12T01:36:38.275Z,96.17
2024-03-12T01:37:38.176Z,96.92
2024-03-12T01:38:38.082Z,97.69
2024-03-12T01:39:38.100Z,98.16
2024-03-12T01:40:37.943Z,98.44
2024-03-12T01:41:37.829Z,98.82
2024-03-12T01:42:37.792Z,98.63
2024-03-12T01:43:37.679Z,98.73
2024-03-12T01:44:37.636Z,98.63
2024-03-12T01:45:38.125Z,98.82
2024-03-12T01:46:37.427Z,98.44
2024-03-12T01:47:37.380Z,98.63
2024-03-12T01:48:37.284Z,98.82
2024-03-12T01:49:37.158Z,98.44
2024-03-12T01:50:37.084Z,98.25
2024-03-12T01:51:37.078Z,96.73
2024-03-12T01:52:36.918Z,96.36
2024-03-12T01:53:36.827Z,95.55
2024-03-12T01:54:36.758Z,96.12
2024-03-12T01:55:36.662Z,96.03
2024-03-12T01:56:36.569Z,97.07
2024-03-12T01:57:36.541Z,96.88
2024-03-12T01:58:36.401Z,96.88
2024-03-12T01:59:36.337Z,97.54
2024-03-12T02:00:36.269Z,97.35
2024-03-12T02:01:36.243Z,98.58
2024-03-12T02:02:36.073Z,97.83
2024-03-12T02:03:36.024Z,98.11
2024-03-12T02:04:35.930Z,98.96
2024-03-12T02:05:35.811Z,98.49
2024-03-12T02:06:35.744Z,98.77
2024-03-12T02:07:35.637Z,98.21
2024-03-12T02:08:35.559Z,97.45
2024-03-12T02:09:35.541Z,97.35
2024-03-12T02:10:35.386Z,97.35
2024-03-12T02:11:35.331Z,96.88
2024-03-12T02:12:35.242Z,97.40
2024-03-12T02:13:35.135Z,97.54
2024-03-12T02:14:35.047Z,97.78
2024-03-12T02:15:35.052Z,97.40
2024-03-12T02:16:34.916Z,97.35
2024-03-12T02:17:34.832Z,98.87
2024-03-12T02:18:34.781Z,99.25
2024-03-12T02:19:34.627Z,99.44
2024-03-12T02:20:34.557Z,99.99
2024-03-12T02:21:34.464Z,99.99
2024-03-12T02:22:34.376Z,99.99
2024-03-12T02:23:34.287Z,99.99
2024-03-12T02:24:34.229Z,99.99
2024-03-12T02:25:34.142Z,99.99
2024-03-12T02:26:34.033Z,99.99
2024-03-12T02:27:33.962Z,99.99
2024-03-12T02:28:33.869Z,99.99
2024-03-12T02:29:33.779Z,99.99
2024-03-12T02:30:33.786Z,99.99
2024-03-12T02:31:33.714Z,99.99
2024-03-12T02:32:33.667Z,99.99
2024-03-12T02:33:33.457Z,99.99
2024-03-12T02:34:33.383Z,99.99
2024-03-12T02:35:33.270Z,99.99
2024-03-12T02:36:33.255Z,99.99
2024-03-12T02:37:33.113Z,99.99
2024-03-12T02:38:33.016Z,99.99
2024-03-12T02:39:32.953Z,99.99
2024-03-12T02:40:32.854Z,99.99
2024-03-12T02:41:32.764Z,99.99
2024-03-12T02:42:32.701Z,99.99
2024-03-12T02:43:32.598Z,99.99
2024-03-12T02:44:32.509Z,99.77
2024-03-12T02:45:32.482Z,99.39
2024-03-12T02:46:32.350Z,99.25
2024-03-12T02:47:32.284Z,99.58
2024-03-12T02:48:32.209Z,99.30
2024-03-12T02:49:32.095Z,99.49
2024-03-12T02:50:31.999Z,99.99
2024-03-12T02:51:31.931Z,99.99
2024-03-12T02:52:31.825Z,99.99
2024-03-12T02:53:31.750Z,99.99
2024-03-12T02:54:31.712Z,99.99
2024-03-12T02:55:31.585Z,99.99
2024-03-12T02:56:31.492Z,99.99
2024-03-12T02:57:31.443Z,99.99
2024-03-12T02:58:31.330Z,99.99
2024-03-12T02:59:31.239Z,99.99
2024-03-12T03:00:31.203Z,99.99
2024-03-12T03:01:31.197Z,99.99
2024-03-12T03:02:30.997Z,99.99
2024-03-12T03:03:30.931Z,99.99
2024-03-12T03:04:30.862Z,99.99
2024-03-12T03:05:30.726Z,99.99
2024-03-12T03:06:30.662Z,99.99
2024-03-12T03:07:30.563Z,99.99
2024-03-12T03:08:30.481Z,99.99
2024-03-12T03:09:30.402Z,99.99
2024-03-12T03:10:30.314Z,99.99
2024-03-12T03:11:30.267Z,99.99
2024-03-12T03:12:30.145Z,99.99
2024-03-12T03:13:30.055Z,99.99
2024-03-12T03:14:29.987Z,99.99
2024-03-12T03:15:29.973Z,99.99
2024-03-12T03:16:29.804Z,99.99
2024-03-12T03:17:29.787Z,99.99
2024-03-12T03:18:29.788Z,99.99
2024-03-12T03:19:29.563Z,99.99
2024-03-12T03:20:29.490Z,99.99
2024-03-12T03:21:29.413Z,99.99
2024-03-12T03:22:29.475Z,99.99
2024-03-12T03:23:29.211Z,99.99
2024-03-12T03:24:29.181Z,99.99
2024-03-12T03:25:29.038Z,99.99
2024-03-12T03:26:28.963Z,99.99
2024-03-12T03:27:28.892Z,99.91
2024-03-12T03:28:28.802Z,99.99
2024-03-12T03:29:28.704Z,99.82
2024-03-12T03:30:28.690Z,99.91
2024-03-12T03:31:28.534Z,99.73
2024-03-12T03:32:28.505Z,99.54
2024-03-12T03:33:28.426Z,99.58
2024-03-12T03:34:28.279Z,99.99
2024-03-12T03:35:28.194Z,99.99
2024-03-12T03:36:28.145Z,99.99
2024-03-12T03:37:28.024Z,99.49
2024-03-12T03:38:27.948Z,99.99
2024-03-12T03:39:27.938Z,99.58
2024-03-12T03:40:27.819Z,98.92
2024-03-12T03:41:27.695Z,95.60
2024-03-12T03:42:27.667Z,94.84
2024-03-12T03:43:27.537Z,94.74
2024-03-12T03:44:27.434Z,95.12
2024-03-12T03:45:27.387Z,95.41
2024-03-12T03:46:27.274Z,95.98
2024-03-12T03:47:27.213Z,96.26
2024-03-12T03:48:27.131Z,96.73
2024-03-12T03:49:27.014Z,97.88
2024-03-12T03:50:26.932Z,98.35
2024-03-12T03:51:26.882Z,98.25
2024-03-12T03:52:26.776Z,98.63
2024-03-12T03:53:26.676Z,99.49
2024-03-12T03:54:26.636Z,99.68
2024-03-12T03:55:26.501Z,99.87
2024-03-12T03:56:26.418Z,99.87
2024-03-12T03:57:26.379Z,99.99
2024-03-12T03:58:26.260Z,99.96
2024-03-12T03:59:26.190Z,99.39
2024-03-12T04:00:26.104Z,99.39
2024-03-12T04:01:26.055Z,98.96
2024-03-12T04:02:25.910Z,97.97
2024-03-12T04:03:25.827Z,98.35
2024-03-12T04:04:25.757Z,98.25
2024-03-12T04:05:25.661Z,96.97
2024-03-12T04:06:27.588Z,95.55
2024-03-12T04:07:25.496Z,95.07
2024-03-12T04:08:25.422Z,95.17
2024-03-12T04:09:25.323Z,95.84
2024-03-12T04:10:25.269Z,96.78
2024-03-12T04:11:25.211Z,97.07
2024-03-12T04:12:25.117Z,97.07
2024-03-12T04:13:24.982Z,97.35
2024-03-12T04:14:24.902Z,97.45
2024-03-12T04:15:24.842Z,97.73
2024-03-12T04:16:24.735Z,97.64
2024-03-12T04:17:24.651Z,97.78
2024-03-12T04:18:24.632Z,98.21
2024-03-12T04:19:24.491Z,98.72
2024-03-12T04:20:24.398Z,97.97
2024-03-12T04:21:24.362Z,98.82
2024-03-12T04:22:24.220Z,98.82
2024-03-12T04:23:24.138Z,99.01
2024-03-12T04:24:24.080Z,98.72
2024-03-12T04:25:23.993Z,98.72
2024-03-12T04:26:23.876Z,98.54
2024-03-12T04:27:23.800Z,98.16
2024-03-12T04:28:23.717Z,97.21
2024-03-12T04:29:23.622Z,97.21
2024-03-12T04:30:23.545Z,97.68
2024-03-12T04:31:23.457Z,97.40
2024-03-12T04:32:23.378Z,99.10
2024-03-12T04:33:23.300Z,99.58
2024-03-12T04:34:23.200Z,99.86
2024-03-12T04:35:23.115Z,99.99
2024-03-12T04:36:23.034Z,99.99
2024-03-12T04:37:22.943Z,99.99
2024-03-12T04:38:22.863Z,99.99
2024-03-12T04:39:22.784Z,99.99
2024-03-12T04:40:22.850Z,99.99
2024-03-12T04:41:22.640Z,99.99
2024-03-12T04:42:22.521Z,99.99
2024-03-12T04:43:22.456Z,99.99
2024-03-12T04:44:22.357Z,99.99
2024-03-12T04:45:22.285Z,99.99
2024-03-12T04:46:22.179Z,99.99
2024-03-12T04:47:22.110Z,99.99
2024-03-12T04:48:22.054Z,99.99
2024-03-12T04:49:21.927Z,99.99
2024-03-12T04:50:21.843Z,99.99
2024-03-12T04:51:21.765Z,99.71
2024-03-12T04:52:21.698Z,99.62
2024-03-12T04:53:23.484Z,99.43
2024-03-12T04:54:21.507Z,99.15
2024-03-12T04:55:21.429Z,98.11
2024-03-12T04:56:21.362Z,99.24
2024-03-12T04:57:21.298Z,99.99
2024-03-12T04:58:21.162Z,99.99
2024-03-12T04:59:21.087Z,99.99
2024-03-12T05:00:21.318Z,99.99
2024-03-12T05:01:21.008Z,99.99
2024-03-12T05:02:20.823Z,99.99
2024-03-12T05:03:20.736Z,99.99
2024-03-12T05:04:23.284Z,99.99
2024-03-12T05:05:20.617Z,99.99
2024-03-12T05:06:20.489Z,99.99
2024-03-12T05:07:20.394Z,99.99
2024-03-12T05:08:20.312Z,99.99
2024-03-12T05:09:20.266Z,99.99
2024-03-12T05:10:20.194Z,99.99
2024-03-12T05:11:20.097Z,99.99
2024-03-12T05:12:19.987Z,99.99
2024-03-12T05:13:19.886Z,99.99
2024-03-12T05:14:19.795Z,99.99
2024-03-12T05:15:19.719Z,99.99
2024-03-12T05:16:21.537Z,99.99
2024-03-12T05:17:19.554Z,99.99
2024-03-12T05:18:19.462Z,99.99
2024-03-12T05:19:19.405Z,99.99
2024-03-12T05:20:19.670Z,99.99
2024-03-12T05:21:19.200Z,99.99
2024-03-12T05:22:19.124Z,99.99
2024-03-12T05:23:19.032Z,99.99
2024-03-12T05:24:18.970Z,99.99
2024-03-12T05:25:18.868Z,99.99
2024-03-12T05:26:18.767Z,99.99
2024-03-12T05:27:18.712Z,99.99
2024-03-12T05:28:18.658Z,99.99
2024-03-12T05:29:18.509Z,99.99
2024-03-12T05:30:18.457Z,99.99
2024-03-12T05:31:18.348Z,99.99
2024-03-12T05:32:18.273Z,99.99
2024-03-12T05:33:18.204Z,99.99
2024-03-12T05:34:18.088Z,99.99
2024-03-12T05:35:18.017Z,99.99
2024-03-12T05:36:17.945Z,99.99
2024-03-12T05:37:17.929Z,99.99
2024-03-12T05:38:17.752Z,99.99
2024-03-12T05:39:17.665Z,99.99
2024-03-12T05:40:17.598Z,99.99
2024-03-12T05:41:17.501Z,99.99
2024-03-12T05:42:17.407Z,99.99
2024-03-12T05:43:17.374Z,99.99
2024-03-12T05:44:17.259Z,99.99
2024-03-12T05:45:17.156Z,99.99
2024-03-12T05:46:17.274Z,99.99
2024-03-12T05:47:16.976Z,99.99
2024-03-12T05:48:16.904Z,99.99
2024-03-12T05:49:16.988Z,99.99
2024-03-12T05:50:16.719Z,99.99
2024-03-12T05:51:16.637Z,99.99
2024-03-12T05:52:16.643Z,99.99
2024-03-12T05:53:16.458Z,99.99
2024-03-12T05:54:16.375Z,99.99
2024-03-12T05:55:16.417Z,99.99
2024-03-12T05:56:18.680Z,99.99
2024-03-12T05:57:16.118Z,99.99
2024-03-12T05:58:16.061Z,99.99
2024-03-12T05:59:15.943Z,99.99
2024-03-12T06:00:15.880Z,99.99
2024-03-12T06:01:15.934Z,99.99
2024-03-12T06:02:15.701Z,99.99
2024-03-12T06:03:15.596Z,99.99
2024-03-12T06:04:15.618Z,99.99
2024-03-12T06:05:15.429Z,99.99
2024-03-12T06:06:15.363Z,99.99
2024-03-12T06:07:16.828Z,99.99
2024-03-12T06:08:15.180Z,99.99
2024-03-12T06:09:15.085Z,99.99
2024-03-12T06:10:15.150Z,99.99
2024-03-12T06:11:15.101Z,99.99
2024-03-12T06:12:14.828Z,99.99
2024-03-12T06:13:14.802Z,99.99
2024-03-12T06:14:14.657Z,99.99
2024-03-12T06:15:14.563Z,99.99
2024-03-12T06:16:14.719Z,99.99
2024-03-12T06:17:14.403Z,99.99
2024-03-12T06:18:14.361Z,99.99
2024-03-12T06:19:14.329Z,99.99
2024-03-12T06:20:14.218Z,99.99
2024-03-12T06:21:14.056Z,99.99
2024-03-12T06:22:13.994Z,99.99
2024-03-12T06:23:13.883Z,99.99
2024-03-12T06:24:13.828Z,99.99
2024-03-12T06:25:14.018Z,99.99
2024-03-12T06:26:13.635Z,99.99
2024-03-12T06:27:13.565Z,99.99
2024-03-12T06:28:13.612Z,99.99
2024-03-12T06:29:13.368Z,99.99
2024-03-12T06:30:13.284Z,99.99
2024-03-12T06:31:13.322Z,99.99
2024-03-12T06:32:13.137Z,99.99
2024-03-12T06:33:13.569Z,99.99
2024-03-12T06:34:13.151Z,99.99
2024-03-12T06:35:12.864Z,99.99
2024-03-12T06:36:12.778Z,99.99
2024-03-12T06:37:12.726Z,99.99
2024-03-12T06:38:12.598Z,99.99
2024-03-12T06:39:12.508Z,99.99
2024-03-12T06:40:12.533Z,99.99
2024-03-12T06:41:12.378Z,99.99
2024-03-12T06:42:12.257Z,99.99
2024-03-12T06:43:12.278Z,99.99
2024-03-12T06:44:12.091Z,99.99
2024-03-12T06:45:12.007Z,99.99
2024-03-12T06:46:12.011Z,99.99
2024-03-12T06:47:11.823Z,99.99
2024-03-12T06:48:11.793Z,99.99
2024-03-12T06:49:11.729Z,99.99
2024-03-12T06:50:11.613Z,99.99
2024-03-12T06:51:11.482Z,99.99
2024-03-12T06:52:11.430Z,99.99
2024-03-12T06:53:11.334Z,99.99
2024-03-12T06:54:11.226Z,99.99
2024-03-12T06:55:13.245Z,99.99
2024-03-12T06:56:11.061Z,99.99
2024-03-12T06:57:10.973Z,99.99
2024-03-12T06:58:10.948Z,99.99
2024-03-12T06:59:10.797Z,99.99
2024-03-12T07:00:11.335Z,99.99
2024-03-12T07:01:10.744Z,99.99
2024-03-12T07:02:10.585Z,99.99
2024-03-12T07:03:10.475Z,99.99
2024-03-12T07:04:10.411Z,99.99
2024-03-12T07:05:10.290Z,99.99
2024-03-12T07:06:10.216Z,99.99
2024-03-12T07:07:10.172Z,99.99
2024-03-12T07:08:10.071Z,99.99
2024-03-12T07:09:11.226Z,99.99
2024-03-12T07:10:09.909Z,99.99
2024-03-12T07:11:09.885Z,99.99
2024-03-12T07:12:09.730Z,99.99
2024-03-12T07:13:09.725Z,99.99
2024-03-12T07:14:09.531Z,99.99
2024-03-12T07:15:09.443Z,99.99
2024-03-12T07:16:09.388Z,99.99
2024-03-12T07:17:09.319Z,99.99
2024-03-12T07:18:09.456Z,99.99
2024-03-12T07:19:09.178Z,99.99
2024-03-12T07:20:09.041Z,99.99
2024-03-12T07:21:08.935Z,99.99
2024-03-12T07:22:08.994Z,99.99
2024-03-12T07:23:08.764Z,99.99
2024-03-12T07:24:08.679Z,99.99
2024-03-12T07:25:08.772Z,99.99
2024-03-12T07:26:08.513Z,99.99
2024-03-12T07:27:08.420Z,99.99
2024-03-12T07:28:09.121Z,99.99
2024-03-12T07:29:08.254Z,99.99
2024-03-12T07:30:08.180Z,99.99
2024-03-12T07:31:08.098Z,99.99
2024-03-12T07:32:08.013Z,99.99
2024-03-12T07:33:07.992Z,99.99
2024-03-12T07:34:07.888Z,99.99
2024-03-12T07:35:07.831Z,99.99
2024-03-12T07:36:07.690Z,99.99
2024-03-12T07:37:07.746Z,99.99
2024-03-12T07:38:07.503Z,99.99
2024-03-12T07:39:07.411Z,99.99
2024-03-12T07:40:07.371Z,99.99
2024-03-12T07:41:07.236Z,99.99
2024-03-12T07:42:07.158Z,99.99
2024-03-12T07:43:07.156Z,99.99
2024-03-12T07:44:06.984Z,99.99
2024-03-12T07:45:06.909Z,99.99
2024-03-12T07:46:06.891Z,99.99
2024-03-12T07:47:06.748Z,99.99
2024-03-12T07:48:06.671Z,99.99
2024-03-12T07:49:07.452Z,99.99
2024-03-12T07:50:06.482Z,99.99
2024-03-12T07:51:06.396Z,99.99
2024-03-12T07:52:07.170Z,99.99
2024-03-12T07:53:06.229Z,99.99
2024-03-12T07:54:06.148Z,99.99
2024-03-12T07:55:06.117Z,99.99
2024-03-12T07:56:05.973Z,99.99
2024-03-12T07:57:05.907Z,99.99
2024-03-12T07:58:05.832Z,99.99
2024-03-12T07:59:05.749Z,99.99
2024-03-12T08:00:05.650Z,99.99
2024-03-12T08:01:05.633Z,99.99
2024-03-12T08:02:05.510Z,99.99
2024-03-12T08:03:05.389Z,99.99
2024-03-12T08:04:05.333Z,99.99
2024-03-12T08:05:05.215Z,99.99
2024-03-12T08:06:05.136Z,99.99
2024-03-12T08:07:05.139Z,99.99
2024-03-12T08:08:05.045Z,99.99
2024-03-12T08:09:04.896Z,99.99
2024-03-12T08:10:04.831Z,99.99
2024-03-12T08:11:04.728Z,99.99
2024-03-12T08:12:04.628Z,99.99
2024-03-12T08:13:04.554Z,99.99
2024-03-12T08:14:04.465Z,99.99
2024-03-12T08:15:04.381Z,99.99
2024-03-12T08:16:04.325Z,99.93
2024-03-12T08:17:04.216Z,99.45
2024-03-12T08:18:13.101Z,99.55
2024-03-12T08:19:04.126Z,99.55
2024-03-12T08:20:03.971Z,99.16
2024-03-12T08:21:03.889Z,99.07
2024-03-12T08:22:03.834Z,99.07
2024-03-12T08:23:03.720Z,99.26
2024-03-12T08:24:03.672Z,98.88
2024-03-12T08:25:03.594Z,98.97
2024-03-12T08:26:03.569Z,99.36
2024-03-12T08:27:03.390Z,98.31
2024-03-12T08:28:03.342Z,98.46
2024-03-12T08:29:03.301Z,97.98
2024-03-12T08:30:03.139Z,98.93
2024-03-12T08:31:08.741Z,98.46
2024-03-12T08:32:03.033Z,98.03
2024-03-12T08:33:02.967Z,97.41
2024-03-12T08:34:02.838Z,97.31
2024-03-12T08:35:02.711Z,97.41
2024-03-12T08:36:02.626Z,96.46
2024-03-12T08:37:02.605Z,95.89
2024-03-12T08:38:02.463Z,96.65
2024-03-12T08:39:02.385Z,97.60
2024-03-12T08:40:02.368Z,97.83
2024-03-12T08:41:02.225Z,97.93
2024-03-12T08:42:02.126Z,97.69
2024-03-12T08:43:05.037Z,97.41
2024-03-12T08:44:02.005Z,97.50
2024-03-12T08:45:01.878Z,97.60
2024-03-12T08:46:01.831Z,97.50
2024-03-12T08:47:01.717Z,97.50
2024-03-12T08:48:03.638Z,97.31
2024-03-12T08:49:01.572Z,95.98
2024-03-12T08:50:01.516Z,96.55
2024-03-12T08:51:01.392Z,95.70
2024-03-12T08:52:01.367Z,95.79
2024-03-12T08:53:01.224Z,95.32
2024-03-12T08:54:01.133Z,96.55
2024-03-12T08:55:01.120Z,96.84
2024-03-12T08:56:01.040Z,97.13
2024-03-12T08:57:00.894Z,96.46
2024-03-12T08:58:01.225Z,95.79
2024-03-12T08:59:00.727Z,95.22
2024-03-12T09:00:00.632Z,96.08
2024-03-12T09:01:00.641Z,97.22
2024-03-12T09:02:00.773Z,97.50
2024-03-12T09:03:00.454Z,97.98
2024-03-12T09:04:00.446Z,96.36
2024-03-12T09:05:00.214Z,96.46
2024-03-12T09:06:00.172Z,95.41
2024-03-12T09:07:00.157Z,96.74
2024-03-12T09:07:59.974Z,97.36
2024-03-12T09:08:59.937Z,97.74
2024-03-12T09:09:59.892Z,97.46
2024-03-12T09:10:59.743Z,97.36
2024-03-12T09:11:59.679Z,96.98
2024-03-12T09:12:59.600Z,95.56
2024-03-12T09:13:59.477Z,95.65
2024-03-12T09:14:59.388Z,96.89
2024-03-12T09:15:59.575Z,96.60
2024-03-12T09:16:59.227Z,95.17
2024-03-12T09:17:59.159Z,94.32
2024-03-12T09:18:59.119Z,94.22
2024-03-12T09:19:58.991Z,95.08
2024-03-12T09:20:58.897Z,95.84
2024-03-12T09:21:58.855Z,95.17
2024-03-12T09:22:58.735Z,95.94
2024-03-12T09:24:02.106Z,96.12
2024-03-12T09:24:58.590Z,94.60
2024-03-12T09:25:58.492Z,94.98
2024-03-12T09:26:58.400Z,94.32
2024-03-12T09:27:58.447Z,95.46
2024-03-12T09:28:58.243Z,94.42
2024-03-12T09:29:58.159Z,94.70
2024-03-12T09:30:58.114Z,95.12
2024-03-12T09:31:57.983Z,95.36
2024-03-12T09:32:57.939Z,95.94
2024-03-12T09:33:58.080Z,95.65
2024-03-12T09:34:57.743Z,95.75
2024-03-12T09:35:57.661Z,94.42
2024-03-12T09:36:57.660Z,94.51
2024-03-12T09:37:57.487Z,94.89
2024-03-12T09:38:57.417Z,94.51
2024-03-12T09:39:57.351Z,95.56
2024-03-12T09:40:57.239Z,94.89
2024-03-12T09:41:57.164Z,94.79
2024-03-12T09:42:57.128Z,94.60
2024-03-12T09:43:57.042Z,94.79
2024-03-12T09:44:56.914Z,95.56
2024-03-12T09:45:56.890Z,95.17
2024-03-12T09:46:56.758Z,95.08
2024-03-12T09:47:56.717Z,94.42
2024-03-12T09:48:56.655Z,94.89
2024-03-12T09:49:56.511Z,95.65
2024-03-12T09:50:56.426Z,94.60
2024-03-12T09:51:56.348Z,94.79
2024-03-12T09:52:56.248Z,95.36
2024-03-12T09:53:57.071Z,94.51
2024-03-12T09:54:56.139Z,94.60
2024-03-12T09:55:56.114Z,94.89
2024-03-12T09:56:55.930Z,96.03
2024-03-12T09:57:55.897Z,95.65
2024-03-12T09:58:55.762Z,95.94
2024-03-12T09:59:55.708Z,95.08
2024-03-12T10:00:55.659Z,94.98
2024-03-12T10:01:55.539Z,94.32
2024-03-12T10:02:55.454Z,94.42
2024-03-12T10:03:55.385Z,95.36
2024-03-12T10:04:55.261Z,95.27
2024-03-12T10:05:55.179Z,95.56
2024-03-12T10:06:55.144Z,95.36
2024-03-12T10:07:55.013Z,94.42
2024-03-12T10:08:54.935Z,94.79
2024-03-12T10:09:54.938Z,95.56
2024-03-12T10:10:54.823Z,95.17
2024-03-12T10:11:54.678Z,95.17
2024-03-12T10:12:54.656Z,95.56
2024-03-12T10:13:54.516Z,94.51
2024-03-12T10:14:54.437Z,95.75
2024-03-12T10:15:54.402Z,95.08
2024-03-12T10:16:54.285Z,95.94
2024-03-12T10:17:54.237Z,95.46
2024-03-12T10:18:54.168Z,94.51
2024-03-12T10:19:54.026Z,94.22
2024-03-12T10:20:53.941Z,94.79
2024-03-12T10:21:53.918Z,94.79
2024-03-12T10:22:53.775Z,94.60
2024-03-12T10:23:53.697Z,95.46
2024-03-12T10:24:53.677Z,95.08
2024-03-12T10:25:53.529Z,94.60
2024-03-12T10:26:53.448Z,94.32
2024-03-12T10:28:03.777Z,94.51
2024-03-12T10:28:53.320Z,94.42
2024-03-12T10:29:53.206Z,94.70
2024-03-12T10:30:53.123Z,94.51
2024-03-12T10:31:53.055Z,93.74
2024-03-12T10:32:52.996Z,93.46
2024-03-12T10:33:52.939Z,93.27
2024-03-12T10:34:52.794Z,93.74
2024-03-12T10:35:52.707Z,93.65
2024-03-12T10:36:52.673Z,94.13
2024-03-12T10:37:52.545Z,94.32
2024-03-12T10:38:52.462Z,94.13
2024-03-12T10:39:52.465Z,94.22
2024-03-12T10:40:52.316Z,94.89
2024-03-12T10:41:52.215Z,94.89
2024-03-12T10:42:52.142Z,94.42
2024-03-12T10:43:52.093Z,94.32
2024-03-12T10:44:51.963Z,94.32
2024-03-12T10:45:51.906Z,94.42
2024-03-12T10:46:51.805Z,94.60
2024-03-12T10:47:53.770Z,94.42
2024-03-12T10:48:51.988Z,94.51
2024-03-12T10:49:51.569Z,94.51
2024-03-12T10:50:51.471Z,94.42
2024-03-12T10:51:51.404Z,94.22
2024-03-12T10:52:51.314Z,94.22
2024-03-12T10:53:51.262Z,93.74
2024-03-12T10:55:02.407Z,93.84
2024-03-12T10:55:51.117Z,93.46
2024-03-12T10:56:50.975Z,93.37
2024-03-12T10:57:50.931Z,93.46
2024-03-12T10:58:50.815Z,93.46
2024-03-12T10:59:50.734Z,93.74
2024-03-12T11:00:50.674Z,93.84
2024-03-12T11:01:50.590Z,93.37
2024-03-12T11:02:50.490Z,93.37
2024-03-12T11:03:50.457Z,93.18
2024-03-12T11:04:50.321Z,93.65
2024-03-12T11:05:50.238Z,93.74
2024-03-12T11:06:50.194Z,92.79
2024-03-12T11:07:50.080Z,92.99
2024-03-12T11:08:49.999Z,92.99
2024-03-12T11:09:49.936Z,92.99
2024-03-12T11:10:49.867Z,92.99
2024-03-12T11:11:49.740Z,93.55
2024-03-12T11:12:49.732Z,93.46
2024-03-12T11:13:49.579Z,93.37
2024-03-12T11:14:49.494Z,93.55
2024-03-12T11:15:49.417Z,93.37
2024-03-12T11:16:49.329Z,93.84
2024-03-12T11:17:49.260Z,94.03
2024-03-12T11:18:49.388Z,94.32
2024-03-12T11:19:49.106Z,94.42
2024-03-12T11:20:49.004Z,94.32
2024-03-12T11:21:49.001Z,94.13
2024-03-12T11:22:48.848Z,94.17
2024-03-12T11:23:48.761Z,93.51
2024-03-12T11:24:48.718Z,93.60
2024-03-12T11:25:50.948Z,93.27
2024-03-12T11:26:48.509Z,93.51
2024-03-12T11:27:48.472Z,93.22
2024-03-12T11:28:48.384Z,92.60
2024-03-12T11:29:48.269Z,92.99
2024-03-12T11:30:48.210Z,92.70
2024-03-12T11:31:48.096Z,92.60
2024-03-12T11:32:48.041Z,92.99
2024-03-12T11:33:47.977Z,92.99
2024-03-12T11:34:47.848Z,92.79
2024-03-12T11:35:47.845Z,92.99
2024-03-12T11:36:48.044Z,92.89
2024-03-12T11:37:47.605Z,93.08
2024-03-12T11:38:47.564Z,92.99
2024-03-12T11:39:47.475Z,92.89
2024-03-12T11:40:47.358Z,92.99
2024-03-12T11:41:47.270Z,93.18
2024-03-12T11:42:47.226Z,92.89
2024-03-12T11:43:47.120Z,93.46
2024-03-12T11:44:47.130Z,93.65
2024-03-12T11:45:47.147Z,93.46
2024-03-12T11:46:46.895Z,93.13
2024-03-12T11:47:46.804Z,93.13
2024-03-12T11:48:47.056Z,93.22
2024-03-12T11:49:46.620Z,93.65
2024-03-12T11:50:46.556Z,93.46
2024-03-12T11:51:46.537Z,93.51
2024-03-12T11:52:46.381Z,93.74
2024-03-12T11:53:46.413Z,94.13
2024-03-12T11:54:46.338Z,94.32
2024-03-12T11:55:46.123Z,94.60
2024-03-12T11:56:46.044Z,94.93
2024-03-12T11:57:45.975Z,94.37
2024-03-12T11:58:46.052Z,93.74
2024-03-12T11:59:45.805Z,93.18
2024-03-12T12:00:45.779Z,93.46
2024-03-12T12:01:45.717Z,93.55
2024-03-12T12:02:45.550Z,93.46
2024-03-12T12:03:45.547Z,93.74
2024-03-12T12:04:45.392Z,93.65
2024-03-12T12:05:45.322Z,93.55
2024-03-12T12:06:45.249Z,94.32
2024-03-12T12:07:45.185Z,94.22
2024-03-12T12:08:53.094Z,94.13
2024-03-12T12:09:45.056Z,94.13
2024-03-12T12:10:44.901Z,95.27
2024-03-12T12:11:44.837Z,95.36
2024-03-12T12:12:44.808Z,95.27
2024-03-12T12:13:44.647Z,95.75
2024-03-12T12:14:44.567Z,95.36
2024-03-12T12:15:44.495Z,95.65
2024-03-12T12:16:44.402Z,95.08
2024-03-12T12:17:44.357Z,95.84
2024-03-12T12:18:44.262Z,96.79
2024-03-12T12:19:44.190Z,96.89
2024-03-12T12:20:45.064Z,96.51
2024-03-12T12:21:44.004Z,96.31
2024-03-12T12:22:43.907Z,96.31
2024-03-12T12:23:43.854Z,96.31
2024-03-12T12:24:43.753Z,96.41
2024-03-12T12:25:43.677Z,97.36
2024-03-12T12:26:43.579Z,97.17
2024-03-12T12:27:43.540Z,97.74
2024-03-12T12:28:43.412Z,97.27
2024-03-12T12:29:43.329Z,97.46
2024-03-12T12:30:43.274Z,97.65
2024-03-12T12:31:43.338Z,98.03
2024-03-12T12:32:43.179Z,98.03
2024-03-12T12:33:43.025Z,97.36
2024-03-12T12:34:42.922Z,97.65
2024-03-12T12:35:42.837Z,97.08
2024-03-12T12:36:42.785Z,97.17
2024-03-12T12:37:42.680Z,97.36
2024-03-12T12:38:42.590Z,97.46
2024-03-12T12:39:48.486Z,97.36
2024-03-12T12:40:42.461Z,97.46
2024-03-12T12:41:42.347Z,97.55
2024-03-12T12:42:42.303Z,97.55
2024-03-12T12:43:42.184Z,97.65
2024-03-12T12:44:42.122Z,97.65
2024-03-12T12:45:42.065Z,97.65
2024-03-12T12:46:41.945Z,97.46
2024-03-12T12:47:41.903Z,96.60
2024-03-12T12:48:43.740Z,97.08
2024-03-12T12:49:41.713Z,96.60
2024-03-12T12:50:41.607Z,97.51
2024-03-12T12:51:41.537Z,97.22